Time;durP1;ratioP1;P1;durP2;ratioP2;P2;SDS_P1;SDS_P2;PMS_P1;PMS_P2;Temp;Humidity;BMP_temperature;BMP_pressure;BME280_temperature;BME280_humidity;BME280_pressure;Samples;Min_cycle;Max_cycle;Signal;HPM_P1;HPM_P2
2021/12/06 00:02:06;;;;;;;6.10;3.60;;;;;;;9.57;54.44;100678.19;5027816;28;20486;-74
2021/12/06 00:04:38;;;;;;;6.45;3.72;;;;;;;9.55;54.21;100691.84;5025361;28;20041;-74
2021/12/06 00:07:17;;;;;;;5.72;3.80;;;;;;;9.59;54.32;100681.66;5027035;28;20052;-71
2021/12/06 00:09:44;;;;;;;6.18;3.75;;;;;;;9.56;54.38;100688.16;5026343;28;20084;-72
2021/12/06 00:12:12;;;;;;;5.28;3.45;;;;;;;9.58;54.25;100680.78;5023365;28;20077;-72
2021/12/06 00:14:41;;;;;;;5.43;3.30;;;;;;;9.59;54.28;100681.66;5006326;28;20140;-71
2021/12/06 00:17:12;;;;;;;6.25;3.92;;;;;;;9.61;54.29;100688.72;5004147;28;20092;-71
2021/12/06 00:19:40;;;;;;;5.45;3.50;;;;;;;9.61;54.43;100694.16;5026070;28;20085;-71
2021/12/06 00:22:13;;;;;;;5.38;3.65;;;;;;;9.63;54.50;100689.50;5012725;28;20133;-71
2021/12/06 00:24:40;;;;;;;5.30;3.42;;;;;;;9.62;54.25;100695.03;5037070;28;20224;-74
2021/12/06 00:27:07;;;;;;;6.68;3.97;;;;;;;9.63;54.31;100694.94;5026516;28;20496;-72
2021/12/06 00:29:34;;;;;;;5.07;3.70;;;;;;;9.63;54.28;100697.66;5018031;28;20041;-72
2021/12/06 00:32:00;;;;;;;5.28;3.40;;;;;;;9.63;54.41;100703.06;5035700;28;20582;-72
2021/12/06 00:34:32;;;;;;;5.28;3.60;;;;;;;9.65;54.47;100700.22;5026478;28;20128;-72
2021/12/06 00:37:21;;;;;;;6.43;3.90;;;;;;;9.64;54.69;100704.78;5032912;28;20077;-73
2021/12/06 00:39:52;;;;;;;5.00;3.78;;;;;;;9.65;54.40;100708.38;5028492;28;20065;-73
2021/12/06 00:42:21;;;;;;;5.63;3.72;;;;;;;9.65;54.23;100703.81;5007454;28;20050;-74
2021/12/06 00:44:48;;;;;;;5.68;4.07;;;;;;;9.63;54.10;100691.34;5018457;28;20481;-72
2021/12/06 00:47:15;;;;;;;7.38;4.13;;;;;;;9.63;54.26;100694.06;5030438;28;20128;-72
2021/12/06 00:49:45;;;;;;;5.93;4.00;;;;;;;9.62;54.11;100695.03;4996651;28;20084;-72
2021/12/06 00:52:13;;;;;;;5.35;4.13;;;;;;;9.62;54.33;100703.16;5030119;28;20132;-72
2021/12/06 00:54:41;;;;;;;6.63;3.92;;;;;;;9.62;54.58;100703.16;5034568;28;20108;-71
2021/12/06 00:57:09;;;;;;;5.53;3.90;;;;;;;9.62;54.44;100706.75;5031294;28;20057;-72
2021/12/06 00:59:37;;;;;;;6.40;3.88;;;;;;;9.62;54.48;100708.59;5030592;28;20080;-72
2021/12/06 01:02:09;;;;;;;5.72;3.75;;;;;;;9.64;54.65;100714.75;5033511;28;20049;-72
2021/12/06 01:04:38;;;;;;;6.03;4.20;;;;;;;9.63;54.52;100721.16;5032998;28;20486;-72
2021/12/06 01:07:05;;;;;;;7.28;4.20;;;;;;;9.64;54.40;100728.31;5029938;28;20478;-71
2021/12/06 01:09:32;;;;;;;6.22;4.03;;;;;;;9.63;54.58;100730.16;5025815;28;20121;-74
2021/12/06 01:11:59;;;;;;;6.57;4.45;;;;;;;9.64;54.65;100740.00;5031032;28;20037;-71
2021/12/06 01:14:26;;;;;;;5.13;4.03;;;;;;;9.64;54.51;100741.84;5026058;28;20068;-72
2021/12/06 01:16:53;;;;;;;4.95;3.78;;;;;;;9.65;54.63;100749.03;5024769;28;20065;-71
2021/12/06 01:19:20;;;;;;;5.22;3.85;;;;;;;9.65;54.57;100741.75;5015929;28;20622;-71
2021/12/06 01:22:00;;;;;;;6.32;4.07;;;;;;;9.66;54.71;100742.63;5012123;28;20132;-72
2021/12/06 01:24:30;;;;;;;6.65;3.85;;;;;;;9.66;54.74;100756.19;5024792;28;20706;-72
2021/12/06 01:32:13;;;;;;;6.05;4.00;;;;;;;9.70;54.65;100776.72;5028843;28;20441;-71
2021/12/06 01:40:11;;;;;;;6.25;4.55;;;;;;;9.69;54.45;100786.69;5028403;28;20502;-72
2021/12/06 01:42:38;;;;;;;6.63;4.43;;;;;;;9.70;54.47;100787.56;5026065;28;20042;-71
2021/12/06 01:45:07;;;;;;;6.70;4.45;;;;;;;9.70;54.51;100795.69;5021742;28;20037;-71
2021/12/06 01:47:38;;;;;;;6.55;4.40;;;;;;;9.70;54.74;100796.56;5014999;28;20084;-72
2021/12/06 01:50:12;;;;;;;5.53;3.60;;;;;;;9.71;54.64;100795.59;5034971;28;20076;-71
2021/12/06 01:52:43;;;;;;;6.40;3.97;;;;;;;9.71;54.45;100792.91;5033844;28;20057;-73
2021/12/06 01:55:16;;;;;;;6.10;4.05;;;;;;;9.72;54.67;100800.03;5027183;28;20171;-73
2021/12/06 01:57:43;;;;;;;5.82;4.30;;;;;;;9.71;54.48;100797.44;5034851;28;20053;-72
2021/12/06 02:00:17;;;;;;;6.30;4.25;;;;;;;9.73;54.80;100795.47;5031318;28;20136;-72
2021/12/06 02:02:44;;;;;;;7.00;3.92;;;;;;;9.71;54.42;100797.44;5044417;28;20056;-72
2021/12/06 02:05:11;;;;;;;6.95;4.30;;;;;;;9.70;54.51;100796.56;5043653;28;20065;-72
2021/12/06 02:07:38;;;;;;;6.32;4.07;;;;;;;9.71;54.78;100797.44;5035032;28;20073;-74
2021/12/06 02:10:07;;;;;;;6.43;4.35;;;;;;;9.73;54.66;100800.91;5028627;28;20056;-71
2021/12/06 02:12:34;;;;;;;5.32;3.88;;;;;;;9.71;54.57;100797.44;5028258;28;20638;-72
2021/12/06 02:17:36;;;;;;;5.57;4.10;;;;;;;9.69;54.50;100800.25;5032025;28;20576;-74
2021/12/06 02:20:20;;;;;;;5.72;4.00;;;;;;;9.73;54.67;100803.63;5034108;28;20136;-74
2021/12/06 02:22:47;;;;;;;7.47;4.18;;;;;;;9.69;54.60;100815.63;5030602;28;20054;-73
2021/12/06 02:25:17;;;;;;;6.07;3.90;;;;;;;9.69;54.65;100818.34;5014989;28;20053;-71
2021/12/06 02:27:46;;;;;;;5.80;4.20;;;;;;;9.69;54.32;100819.22;5037304;28;20061;-73
2021/12/06 02:30:15;;;;;;;5.95;4.40;;;;;;;9.68;54.16;100822.03;5041535;28;20053;-71
2021/12/06 02:32:43;;;;;;;6.60;4.32;;;;;;;9.67;54.02;100823.00;5034460;28;20163;-72
2021/12/06 02:35:17;;;;;;;6.47;4.20;;;;;;;9.65;54.02;100827.63;5027316;28;20069;-72
2021/12/06 02:37:45;;;;;;;6.57;4.60;;;;;;;9.61;53.96;100835.09;5017166;28;20076;-72
2021/12/06 02:40:17;;;;;;;6.25;4.43;;;;;;;9.59;54.06;100838.88;5034405;28;20080;-71
2021/12/06 02:42:46;;;;;;;7.15;4.32;;;;;;;9.52;54.09;100841.09;5030455;28;20060;-73
2021/12/06 02:45:19;;;;;;;5.97;4.25;;;;;;;9.51;53.91;100845.66;5028338;28;20053;-71
2021/12/06 02:47:52;;;;;;;5.60;4.30;;;;;;;9.46;54.20;100846.91;5020351;28;20823;-74
2021/12/06 02:50:23;;;;;;;6.65;4.20;;;;;;;9.48;54.49;100853.09;5028727;28;20053;-72
2021/12/06 02:52:50;;;;;;;6.50;4.50;;;;;;;9.45;54.34;100850.59;5024636;28;20128;-74
2021/12/06 02:55:36;;;;;;;5.35;4.20;;;;;;;9.45;54.22;100850.59;5039843;28;20045;-72
2021/12/06 02:58:14;;;;;;;6.60;4.05;;;;;;;9.46;54.56;100860.47;5005270;28;20045;-72
2021/12/06 03:00:53;;;;;;;5.80;4.30;;;;;;;9.47;54.64;100862.22;5028926;28;20076;-71
2021/12/06 03:03:21;;;;;;;5.88;4.38;;;;;;;9.44;54.40;100863.25;5028433;28;20049;-72
2021/12/06 03:05:50;;;;;;;6.75;4.43;;;;;;;9.46;54.63;100868.59;5028810;28;20120;-73
2021/12/06 03:08:41;;;;;;;6.60;4.43;;;;;;;9.46;54.51;100868.59;5024372;28;20108;-72
2021/12/06 03:11:15;;;;;;;5.57;4.18;;;;;;;9.44;54.47;100874.09;5022690;28;20529;-72
2021/12/06 03:13:42;;;;;;;6.13;4.68;;;;;;;9.42;54.13;100877.88;5011118;28;20136;-72
2021/12/06 03:16:09;;;;;;;5.38;4.05;;;;;;;9.39;54.14;100876.19;5028257;28;20073;-73
2021/12/06 03:18:36;;;;;;;5.57;4.32;;;;;;;9.38;54.09;100877.19;5025078;28;20060;-73
2021/12/06 03:21:03;;;;;;;6.03;4.20;;;;;;;9.36;54.13;100873.69;5037302;28;20454;-72
2021/12/06 03:23:30;;;;;;;6.25;4.38;;;;;;;9.34;54.34;100867.50;5024793;28;20124;-73
2021/12/06 03:25:58;;;;;;;6.70;4.55;;;;;;;9.32;54.44;100863.13;5028376;28;20536;-72
2021/12/06 03:28:25;;;;;;;7.05;4.50;;;;;;;9.33;54.59;100873.88;5002654;28;20621;-74
2021/12/06 03:30:52;;;;;;;6.18;4.43;;;;;;;9.33;54.56;100881.13;5028441;28;20633;-72
2021/12/06 03:33:18;;;;;;;6.03;3.92;;;;;;;9.33;54.51;100867.59;5021942;28;20489;-71
2021/12/06 03:35:45;;;;;;;6.57;4.28;;;;;;;9.33;54.29;100873.88;5020383;28;20145;-71
2021/12/06 03:38:12;;;;;;;5.50;4.13;;;;;;;9.34;54.52;100878.34;5027833;28;20058;-72
2021/12/06 03:40:39;;;;;;;6.07;4.32;;;;;;;9.37;54.54;100882.69;5016615;28;20108;-71
2021/12/06 03:43:05;;;;;;;6.78;4.07;;;;;;;9.36;54.39;100878.25;5031054;28;20521;-71
2021/12/06 03:45:35;;;;;;;5.72;3.83;;;;;;;9.37;54.51;100880.88;5027527;28;20037;-74
2021/12/06 03:48:03;;;;;;;5.88;4.13;;;;;;;9.38;54.22;100881.75;5028427;28;20041;-72
2021/12/06 03:50:30;;;;;;;5.55;4.18;;;;;;;9.37;54.36;100880.88;5029301;28;20132;-72
2021/12/06 03:52:57;;;;;;;5.93;4.50;;;;;;;9.36;54.02;100889.09;5028275;28;20077;-72
2021/12/06 03:55:23;;;;;;;6.57;4.40;;;;;;;9.34;53.98;100881.03;5031977;28;20049;-71
2021/12/06 03:57:50;;;;;;;6.53;4.05;;;;;;;9.31;53.85;100881.22;5032110;28;20095;-72
2021/12/06 04:00:16;;;;;;;6.88;4.35;;;;;;;9.29;54.02;100877.75;5020859;28;20043;-73
2021/12/06 04:02:44;;;;;;;6.00;4.30;;;;;;;9.28;53.91;100877.84;5027111;28;20092;-72
2021/12/06 04:05:11;;;;;;;6.28;4.03;;;;;;;9.25;53.99;100886.16;5021017;28;20395;-72
2021/12/06 04:07:38;;;;;;;5.45;3.80;;;;;;;9.24;54.01;100887.97;5038733;28;20091;-72
2021/12/06 04:10:06;;;;;;;7.03;4.45;;;;;;;9.23;53.94;100885.38;5004729;28;20042;-77
2021/12/06 04:12:32;;;;;;;6.75;4.47;;;;;;;9.21;54.15;100888.19;5025070;28;20049;-71
2021/12/06 04:14:59;;;;;;;6.13;4.15;;;;;;;9.21;53.55;100884.59;5030885;28;20060;-74
2021/12/06 04:17:26;;;;;;;6.30;4.22;;;;;;;9.18;54.01;100885.66;5026535;28;20057;-71
2021/12/06 04:19:53;;;;;;;5.78;3.90;;;;;;;9.18;53.68;100893.78;5010949;28;20052;-71
2021/12/06 04:22:20;;;;;;;6.15;3.97;;;;;;;9.16;53.84;100895.69;5018733;28;20042;-72
2021/12/06 04:24:47;;;;;;;6.82;4.50;;;;;;;9.15;53.79;100902.09;5031834;28;20132;-73
2021/12/06 04:27:14;;;;;;;6.53;3.88;;;;;;;9.14;53.69;100903.06;5027274;28;20084;-73
2021/12/06 04:29:48;;;;;;;6.00;4.05;;;;;;;9.14;53.82;100909.34;5012996;28;20133;-71
2021/12/06 04:32:14;;;;;;;;;;;;;;;8.89;54.29;100911.78;5021726;28;20087;-71
2021/12/06 04:34:41;;;;;;;6.05;3.67;;;;;;;9.02;53.85;100914.63;5040314;28;20070;-74
2021/12/06 04:37:08;;;;;;;4.93;3.60;;;;;;;9.05;53.66;100922.56;5027516;28;20069;-72
2021/12/06 04:39:35;;;;;;;4.93;3.65;;;;;;;9.04;53.55;100927.13;5026244;28;20072;-72
2021/12/06 04:42:03;;;;;;;6.05;3.80;;;;;;;9.02;53.50;100930.88;5036649;28;20088;-74
2021/12/06 04:44:30;;;;;;;5.05;3.80;;;;;;;8.99;53.61;100937.34;5015878;28;20049;-72
2021/12/06 04:46:56;;;;;;;6.57;4.30;;;;;;;8.97;53.62;100936.56;5032479;28;20463;-72
2021/12/06 04:49:26;;;;;;;7.78;4.47;;;;;;;8.95;53.86;100934.91;5050365;28;20073;-72
2021/12/06 04:51:55;;;;;;;6.13;4.28;;;;;;;8.94;53.80;100939.44;5015785;28;20116;-73
2021/12/06 04:54:28;;;;;;;6.20;4.20;;;;;;;8.94;53.64;100941.28;5028203;28;20068;-72
2021/12/06 04:57:07;;;;;;;5.80;4.28;;;;;;;8.93;53.79;100940.41;5020915;28;20128;-73
2021/12/06 04:59:41;;;;;;;6.72;4.22;;;;;;;8.90;53.70;100937.88;5030161;28;20102;-73
2021/12/06 05:02:19;;;;;;;7.30;4.00;;;;;;;8.90;53.71;100942.41;5016642;28;20141;-72
2021/12/06 05:04:49;;;;;;;5.90;4.13;;;;;;;8.87;53.68;100940.78;5031804;28;20118;-71
2021/12/06 05:07:27;;;;;;;6.60;4.47;;;;;;;8.87;53.82;100938.06;5026506;28;20037;-71
2021/12/06 05:09:53;;;;;;;6.40;4.30;;;;;;;8.84;53.50;100959.91;5008413;28;20108;-72
2021/12/06 05:12:24;;;;;;;5.75;4.18;;;;;;;8.84;53.78;100961.72;5017890;28;20485;-72
2021/12/06 05:14:51;;;;;;;6.10;4.10;;;;;;;8.80;53.46;100974.59;5004795;28;20053;-73
2021/12/06 05:17:18;;;;;;;6.18;4.45;;;;;;;8.80;53.52;100976.41;5034027;28;20049;-71
2021/12/06 05:19:46;;;;;;;6.90;4.20;;;;;;;8.78;53.81;100981.91;5040078;28;20129;-71
2021/12/06 05:22:13;;;;;;;6.53;4.32;;;;;;;8.76;53.59;100987.41;5017987;28;20051;-72
2021/12/06 05:24:40;;;;;;;8.15;4.75;;;;;;;8.73;53.47;100979.44;5033371;28;20057;-72
2021/12/06 05:27:07;;;;;;;6.78;4.63;;;;;;;8.71;53.54;100978.69;5026723;28;20132;-71
2021/12/06 05:29:35;;;;;;;6.63;4.43;;;;;;;8.70;53.25;100981.47;5027295;28;20136;-72
2021/12/06 05:32:03;;;;;;;7.20;4.57;;;;;;;8.67;53.36;100982.50;5031726;28;20045;-73
2021/12/06 05:34:38;;;;;;;6.05;4.28;;;;;;;8.67;53.32;100987.94;5032300;28;20557;-71
2021/12/06 05:37:10;;;;;;;6.82;4.82;;;;;;;8.63;53.34;100999.03;5039511;28;20128;-71
2021/12/06 05:39:37;;;;;;;7.20;4.72;;;;;;;8.60;53.66;101001.91;5007765;28;20128;-71
2021/12/06 05:42:08;;;;;;;8.57;5.35;;;;;;;8.59;53.43;100998.31;5023679;28;20060;-71
2021/12/06 05:44:37;;;;;;;8.13;4.90;;;;;;;8.56;53.42;101003.06;5010876;28;20057;-73
2021/12/06 05:47:05;;;;;;;6.50;4.78;;;;;;;8.55;53.30;101002.19;5020803;28;20081;-71
2021/12/06 05:49:32;;;;;;;7.78;5.28;;;;;;;8.54;53.18;100999.53;5016129;28;20081;-72
2021/12/06 05:51:58;;;;;;;8.20;5.05;;;;;;;8.52;53.11;101004.16;5020072;28;20056;-73
2021/12/06 05:54:26;;;;;;;6.75;4.85;;;;;;;8.50;53.06;101001.53;5015635;28;20081;-71
2021/12/06 05:56:52;;;;;;;8.02;5.20;;;;;;;8.47;53.17;100998.16;5033911;28;20042;-72
2021/12/06 05:59:21;;;;;;;8.57;5.60;;;;;;;8.45;53.24;100995.53;5014566;28;20037;-72
2021/12/06 06:01:50;;;;;;;8.98;5.38;;;;;;;8.44;53.13;101007.31;5029476;28;20053;-71
2021/12/06 06:04:17;;;;;;;7.80;5.50;;;;;;;8.40;53.08;101009.28;5017577;28;20499;-72
2021/12/06 06:06:43;;;;;;;7.40;5.15;;;;;;;8.39;53.14;101009.41;5018724;28;20048;-72
2021/12/06 06:09:10;;;;;;;8.80;5.70;;;;;;;8.37;53.18;101014.00;5026773;28;20073;-71
2021/12/06 06:11:37;;;;;;;8.25;5.10;;;;;;;8.34;53.21;101017.75;5026315;28;20038;-71
2021/12/06 06:14:05;;;;;;;8.23;5.55;;;;;;;8.34;53.24;101015.03;5013400;28;20052;-73
2021/12/06 06:16:36;;;;;;;8.85;5.43;;;;;;;8.32;53.37;101018.78;5027722;28;20151;-72
2021/12/06 06:19:04;;;;;;;7.22;5.20;;;;;;;8.32;53.52;101032.31;5025744;28;20722;-72
2021/12/06 06:21:31;;;;;;;6.82;4.57;;;;;;;8.30;53.30;101034.22;5039286;28;20084;-72
2021/12/06 06:23:58;;;;;;;6.55;4.88;;;;;;;8.28;52.89;101033.41;5018010;28;20054;-72
2021/12/06 06:26:25;;;;;;;7.22;5.20;;;;;;;8.27;53.10;101037.06;5030460;28;20049;-71
2021/12/06 06:28:51;;;;;;;8.88;5.25;;;;;;;8.25;52.98;101049.81;5021804;28;20045;-71
2021/12/06 06:31:18;;;;;;;6.65;5.13;;;;;;;8.22;53.05;101048.16;5034296;28;20075;-73
2021/12/06 06:33:45;;;;;;;7.00;5.20;;;;;;;8.18;53.31;101054.66;5024274;28;20144;-71
2021/12/06 06:36:13;;;;;;;7.43;5.28;;;;;;;8.16;53.02;101056.56;5018116;28;20053;-72
2021/12/06 06:38:40;;;;;;;6.68;4.80;;;;;;;8.14;53.34;101054.94;5021401;28;20065;-70
2021/12/06 06:41:07;;;;;;;6.53;4.75;;;;;;;8.14;53.36;101065.75;5023666;28;20117;-71
2021/12/06 06:43:35;;;;;;;7.97;5.25;;;;;;;8.13;53.33;101064.00;5020649;28;20073;-74
2021/12/06 06:46:05;;;;;;;7.85;5.53;;;;;;;8.15;53.57;101065.69;5043163;28;20049;-72
2021/12/06 06:48:33;;;;;;;6.75;4.82;;;;;;;8.13;53.55;101061.28;5044702;28;20046;-72
2021/12/06 06:51:00;;;;;;;8.00;4.68;;;;;;;8.13;53.38;101053.19;5028732;28;20497;-72
2021/12/06 06:53:27;;;;;;;7.30;4.40;;;;;;;8.10;53.46;101051.50;5030061;28;20119;-74
2021/12/06 06:55:54;;;;;;;6.97;4.90;;;;;;;8.09;53.25;101051.59;5048209;28;20045;-72
2021/12/06 06:58:21;;;;;;;6.47;4.20;;;;;;;8.07;53.18;101048.94;5048899;28;20687;-72
2021/12/06 07:00:48;;;;;;;7.43;4.65;;;;;;;8.07;53.41;101050.81;5028866;28;20084;-71
2021/12/06 07:03:15;;;;;;;6.75;4.72;;;;;;;8.06;53.29;101043.66;5031887;28;20158;-74
2021/12/06 07:05:43;;;;;;;7.63;5.15;;;;;;;8.05;53.31;101041.91;4999887;28;20069;-72
2021/12/06 07:08:09;;;;;;;6.97;4.70;;;;;;;8.02;53.28;101030.28;5028086;28;20052;-71
2021/12/06 07:10:36;;;;;;;10.43;4.80;;;;;;;8.02;53.08;101029.41;5027975;28;20096;-72
2021/12/06 07:13:08;;;;;;;10.20;4.80;;;;;;;8.02;53.45;101029.41;5027304;28;20129;-71
2021/12/06 07:15:35;;;;;;;7.10;4.50;;;;;;;8.00;53.30;101034.03;5027743;28;20038;-72
2021/12/06 07:18:04;;;;;;;7.25;4.63;;;;;;;8.00;53.53;101034.91;5035470;28;20561;-73
2021/12/06 07:20:32;;;;;;;6.93;4.65;;;;;;;7.99;53.64;101033.13;5030913;28;20053;-74
2021/12/06 07:23:00;;;;;;;9.05;4.60;;;;;;;8.01;53.72;101036.66;5035967;28;20053;-72
2021/12/06 07:25:27;;;;;;;7.38;4.63;;;;;;;8.00;53.58;101034.91;5039970;28;20132;-72
2021/12/06 07:27:55;;;;;;;7.57;4.72;;;;;;;8.02;53.60;101045.63;5020151;28;20061;-74
2021/12/06 07:30:22;;;;;;;8.35;4.38;;;;;;;8.02;53.77;101051.03;5027146;28;20080;-73
2021/12/06 07:32:51;;;;;;;6.43;4.55;;;;;;;8.03;53.82;101048.25;5043273;28;20085;-71
2021/12/06 07:35:18;;;;;;;6.60;4.20;;;;;;;8.05;53.83;101047.31;5012961;28;20109;-72
2021/12/06 07:37:45;;;;;;;7.70;4.70;;;;;;;8.05;53.86;101050.88;5036932;28;20049;-72
2021/12/06 07:40:14;;;;;;;8.73;5.28;;;;;;;8.08;53.71;101053.41;5025506;28;20045;-73
2021/12/06 07:42:42;;;;;;;7.82;5.05;;;;;;;8.09;53.87;101051.59;5020678;28;20060;-71
2021/12/06 07:45:11;;;;;;;9.02;5.30;;;;;;;8.11;53.93;101046.97;5026483;28;20124;-72
2021/12/06 07:47:38;;;;;;;9.23;5.85;;;;;;;8.10;53.77;101053.34;5049136;28;20156;-73
2021/12/06 07:50:08;;;;;;;7.32;5.05;;;;;;;8.13;53.59;101061.28;5028578;28;20060;-73
2021/12/06 07:52:35;;;;;;;7.82;5.25;;;;;;;8.11;53.56;101064.06;5041145;28;20069;-72
2021/12/06 07:55:05;;;;;;;6.90;4.70;;;;;;;8.12;53.56;101056.84;5038645;28;20044;-72
2021/12/06 07:57:32;;;;;;;7.72;5.18;;;;;;;8.10;53.29;101056.91;5036688;28;20096;-71
2021/12/06 07:59:59;;;;;;;8.55;5.43;;;;;;;8.11;53.56;101060.50;5023117;28;20045;-72
2021/12/06 08:02:26;;;;;;;8.98;5.50;;;;;;;8.11;53.63;101055.97;5012429;28;20045;-71
2021/12/06 08:05:29;;;;;;;8.50;5.20;;;;;;;8.13;53.69;101053.19;5026909;28;20099;-71
2021/12/06 08:07:40;;;;;;;8.90;4.72;;;;;;;8.11;53.59;101053.25;5028062;28;20042;-71
2021/12/06 08:10:07;;;;;;;8.85;5.32;;;;;;;8.13;53.63;101050.47;5026630;28;20065;-72
2021/12/06 08:12:34;;;;;;;8.77;5.13;;;;;;;8.14;53.60;101057.63;5026902;28;20111;-72
2021/12/06 08:15:00;;;;;;;7.72;5.15;;;;;;;8.15;53.36;101044.03;5025952;28;20128;-71
2021/12/06 08:17:27;;;;;;;7.85;5.20;;;;;;;8.16;53.75;101045.75;5039205;28;20128;-71
2021/12/06 08:19:54;;;;;;;7.18;4.53;;;;;;;8.18;53.57;101059.19;5025112;28;20451;-71
2021/12/06 08:22:20;;;;;;;9.55;4.85;;;;;;;8.18;53.82;101059.19;5017321;28;20190;-72
2021/12/06 08:24:47;;;;;;;7.13;4.40;;;;;;;8.17;53.78;101068.28;5033451;28;20087;-71
2021/12/06 08:27:13;;;;;;;7.85;4.75;;;;;;;8.19;53.55;101063.66;5012589;28;20053;-71
2021/12/06 08:29:40;;;;;;;8.15;5.38;;;;;;;8.19;53.64;101061.84;5025815;28;20084;-70
2021/12/06 08:32:07;;;;;;;7.78;4.85;;;;;;;8.20;53.85;101071.69;5040408;28;20132;-72
2021/12/06 08:34:34;;;;;;;7.97;4.88;;;;;;;8.21;53.81;101070.75;5016434;28;20069;-70
2021/12/06 08:37:01;;;;;;;8.80;4.90;;;;;;;8.23;53.99;101076.09;5027823;28;20136;-72
2021/12/06 08:39:28;;;;;;;8.10;5.22;;;;;;;8.22;53.91;101082.44;5021439;28;20072;-70
2021/12/06 08:41:55;;;;;;;10.10;5.65;;;;;;;8.25;53.99;101084.97;5007496;28;20077;-71
2021/12/06 08:44:21;;;;;;;8.88;6.03;;;;;;;8.25;54.10;101088.53;5027927;28;20069;-70
2021/12/06 08:46:48;;;;;;;11.95;6.60;;;;;;;8.28;54.10;101090.22;5027090;28;20399;-71
2021/12/06 08:49:15;;;;;;;9.32;5.68;;;;;;;8.29;54.16;101090.16;5039984;28;20517;-71
2021/12/06 08:51:46;;;;;;;8.57;5.57;;;;;;;8.32;54.06;101094.53;5038005;28;20049;-71
2021/12/06 08:54:16;;;;;;;12.25;6.70;;;;;;;8.32;54.19;101083.69;5030545;28;20080;-71
2021/12/06 08:56:43;;;;;;;12.13;6.70;;;;;;;8.33;54.07;101097.16;5038837;28;20080;-71
2021/12/06 08:59:10;;;;;;;9.30;6.60;;;;;;;8.36;54.23;101096.13;5041117;28;20442;-71
2021/12/06 09:01:37;;;;;;;8.00;5.78;;;;;;;8.37;54.18;101101.47;5013441;28;20053;-71
2021/12/06 09:04:31;;;;;;;10.88;7.13;;;;;;;8.40;54.30;101094.97;5038995;28;20033;-70
2021/12/06 09:06:58;;;;;;;12.00;7.03;;;;;;;8.40;54.42;101095.88;5037935;28;20540;-72
2021/12/06 09:09:27;;;;;;;10.50;6.82;;;;;;;8.43;54.22;101092.13;5024871;28;20045;-71
2021/12/06 09:11:56;;;;;;;8.75;6.25;;;;;;;8.47;54.19;101095.56;5008463;28;20156;-71
2021/12/06 09:14:23;;;;;;;10.73;6.75;;;;;;;8.48;54.28;101091.91;5033482;28;20046;-71
2021/12/06 09:16:51;;;;;;;8.77;6.57;;;;;;;8.51;54.20;101089.00;5008516;28;20112;-71
2021/12/06 09:19:18;;;;;;;8.95;6.38;;;;;;;8.52;54.21;101088.94;5039080;28;20558;-70
2021/12/06 09:21:45;;;;;;;9.13;5.55;;;;;;;8.54;54.31;101087.03;5025268;28;20128;-72
2021/12/06 09:24:17;;;;;;;8.50;6.05;;;;;;;8.58;54.40;101085.88;5039405;28;20133;-71
2021/12/06 09:26:45;;;;;;;7.65;5.85;;;;;;;8.58;54.28;101093.13;5024719;28;20060;-71
2021/12/06 09:29:12;;;;;;;7.97;5.88;;;;;;;8.59;54.28;101081.34;5012430;28;20076;-71
2021/12/06 09:31:39;;;;;;;8.63;5.88;;;;;;;8.61;54.45;101088.44;5024220;28;20037;-70
2021/12/06 09:34:06;;;;;;;8.63;6.20;;;;;;;8.63;54.33;101091.06;5028864;28;20067;-70
2021/12/06 09:36:33;;;;;;;7.85;5.80;;;;;;;8.65;54.32;101102.66;5012958;28;20795;-70
2021/12/06 09:39:02;;;;;;;8.93;6.82;;;;;;;8.68;54.12;101099.78;5019089;28;20079;-70
2021/12/06 09:41:29;;;;;;;11.20;6.93;;;;;;;8.68;54.31;101095.25;5028361;28;20156;-70
2021/12/06 09:44:00;;;;;;;10.82;7.53;;;;;;;8.70;54.35;101093.34;5022924;28;20045;-71
2021/12/06 09:46:28;;;;;;;11.20;7.20;;;;;;;8.72;54.31;101093.25;5040235;28;20045;-70
2021/12/06 09:48:55;;;;;;;11.50;7.85;;;;;;;8.71;54.21;101089.66;5017476;28;20062;-70
2021/12/06 09:51:25;;;;;;;13.02;8.18;;;;;;;8.74;54.21;101094.00;5024911;28;20128;-72
2021/12/06 09:53:55;;;;;;;12.48;8.02;;;;;;;8.75;54.17;101091.22;5025981;28;20133;-71
2021/12/06 09:56:35;;;;;;;13.82;8.88;;;;;;;8.80;53.92;101106.38;5041708;28;20795;-70
2021/12/06 09:59:06;;;;;;;15.55;9.00;;;;;;;8.78;54.12;101101.03;5028619;28;20056;-72
2021/12/06 10:01:36;;;;;;;17.25;10.27;;;;;;;8.80;54.09;101100.94;5024960;28;20471;-70
2021/12/06 10:04:07;;;;;;;17.75;10.90;;;;;;;8.80;54.29;101106.38;5043979;28;20051;-71
2021/12/06 10:06:34;;;;;;;15.30;9.80;;;;;;;8.80;54.25;101099.13;5017105;28;20046;-73
2021/12/06 10:09:06;;;;;;;18.52;11.45;;;;;;;8.83;54.45;101093.50;5021649;28;20042;-72
2021/12/06 10:11:32;;;;;;;19.58;11.32;;;;;;;8.83;54.33;101096.22;5017676;28;20072;-70
2021/12/06 10:13:59;;;;;;;21.05;13.25;;;;;;;8.84;54.61;101103.38;4999729;28;20149;-71
2021/12/06 10:16:26;;;;;;;18.38;12.13;;;;;;;8.85;54.37;101099.72;5017224;28;20092;-70
2021/12/06 10:18:53;;;;;;;20.33;12.13;;;;;;;8.86;54.41;101098.75;5035496;28;20072;-72
2021/12/06 10:21:20;;;;;;;18.67;11.05;;;;;;;8.87;54.30;101097.81;5034162;28;20528;-72
2021/12/06 10:23:47;;;;;;;18.77;11.30;;;;;;;8.88;54.38;101096.84;5030119;28;20072;-71
2021/12/06 10:26:20;;;;;;;19.85;11.60;;;;;;;8.89;54.14;101095.91;5045320;28;20132;-71
2021/12/06 10:28:46;;;;;;;19.15;11.95;;;;;;;8.87;54.22;101083.41;5037084;28;20129;-70
2021/12/06 10:31:15;;;;;;;21.17;12.75;;;;;;;8.89;54.38;101086.91;5022783;28;20133;-70
2021/12/06 10:33:45;;;;;;;17.30;10.73;;;;;;;8.90;54.26;101088.63;5026581;28;20069;-71
2021/12/06 10:36:15;;;;;;;16.92;11.07;;;;;;;8.89;54.37;101092.31;5016991;28;20068;-71
2021/12/06 10:38:53;;;;;;;18.73;11.10;;;;;;;8.90;54.35;101083.19;5022323;28;20069;-71
2021/12/06 10:41:25;;;;;;;21.27;11.80;;;;;;;8.90;54.44;101085.91;5007283;28;20061;-71
2021/12/06 10:44:04;;;;;;;18.05;10.65;;;;;;;8.90;54.48;101081.38;5023897;28;20147;-71
2021/12/06 10:46:32;;;;;;;18.95;10.20;;;;;;;8.91;54.39;101082.25;5041877;28;20045;-71
2021/12/06 10:49:03;;;;;;;20.92;12.30;;;;;;;8.93;54.82;101077.63;5011096;28;20422;-70
2021/12/06 10:51:33;;;;;;;21.55;11.73;;;;;;;8.92;54.68;101073.16;5014949;28;20049;-70
2021/12/06 10:54:17;;;;;;;23.45;12.68;;;;;;;8.97;55.03;101073.81;5014474;28;20132;-72
2021/12/06 10:56:47;;;;;;;21.13;12.25;;;;;;;8.95;54.60;101062.19;5017323;28;20065;-69
2021/12/06 10:59:26;;;;;;;22.27;12.05;;;;;;;8.99;54.84;101055.59;5027320;28;20127;-70
2021/12/06 11:02:02;;;;;;;22.40;12.00;;;;;;;8.99;54.87;101058.31;5028313;28;20053;-71
2021/12/06 11:04:30;;;;;;;20.70;11.77;;;;;;;8.98;54.59;101062.84;5034369;28;20046;-71
2021/12/06 11:07:05;;;;;;;22.10;11.80;;;;;;;9.01;54.52;101062.69;5033299;28;20133;-71
2021/12/06 11:09:36;;;;;;;21.58;12.40;;;;;;;9.01;54.62;101050.97;5003679;28;20473;-75
2021/12/06 11:12:05;;;;;;;25.17;13.70;;;;;;;9.02;54.36;101052.75;5008942;28;20049;-72
2021/12/06 11:14:41;;;;;;;23.00;12.02;;;;;;;9.06;54.52;101047.03;5045327;28;20055;-71
2021/12/06 11:17:19;;;;;;;23.60;12.23;;;;;;;9.04;54.20;101046.28;5037312;28;20050;-72
2021/12/06 11:19:49;;;;;;;23.90;13.70;;;;;;;9.08;54.54;101044.25;5013919;28;20049;-71
2021/12/06 11:22:23;;;;;;;29.05;13.70;;;;;;;9.10;54.62;101042.34;5033876;28;20571;-71
2021/12/06 11:24:52;;;;;;;25.33;13.43;;;;;;;9.09;54.64;101036.03;5013991;28;20050;-71
2021/12/06 11:27:21;;;;;;;32.25;16.38;;;;;;;9.10;54.52;101029.66;5028357;28;20558;-70
2021/12/06 11:30:03;;;;;;;32.63;16.90;;;;;;;9.11;54.61;101030.53;5033301;28;20123;-71
2021/12/06 11:32:36;;;;;;;29.27;15.00;;;;;;;9.10;54.52;101013.41;5031559;28;20777;-72
2021/12/06 11:35:22;;;;;;;34.55;16.90;;;;;;;9.09;54.69;101011.66;5029507;28;20124;-70
2021/12/06 11:37:56;;;;;;;33.25;15.73;;;;;;;9.05;54.58;101018.25;5033701;28;20077;-70
2021/12/06 11:40:24;;;;;;;28.92;15.13;;;;;;;9.04;54.35;101011.06;5029227;28;20447;-71
2021/12/06 11:43:00;;;;;;;26.98;13.70;;;;;;;9.05;54.64;101009.25;5024332;28;20195;-70
2021/12/06 11:45:42;;;;;;;26.92;14.32;;;;;;;9.04;54.50;100991.25;4999455;28;20051;-71
2021/12/06 11:48:26;;;;;;;24.88;12.57;;;;;;;9.03;54.88;100987.66;4997142;28;20191;-70
2021/12/06 11:51:02;;;;;;;23.58;12.45;;;;;;;9.04;54.66;100985.81;5034714;28;20047;-70
2021/12/06 11:53:32;;;;;;;23.35;12.05;;;;;;;9.05;54.74;100974.91;5033731;28;20586;-70
2021/12/06 11:56:07;;;;;;;23.13;12.63;;;;;;;9.09;55.04;100973.75;5042192;28;20051;-70